createdAt,value
2019-04-23T00:00:29.408Z,69.82
2019-04-23T00:01:35.372Z,70.45
2019-04-23T00:02:30.140Z,70.67
2019-04-23T00:03:36.007Z,71.69
2019-04-23T00:04:28.397Z,72.45
2019-04-23T00:05:48.558Z,73.50
2019-04-23T00:06:32.208Z,73.50
2019-04-23T00:07:44.307Z,73.22
2019-04-23T00:08:41.996Z,73.50
2019-04-23T00:09:36.852Z,73.03
2019-04-23T00:10:53.742Z,72.45
2019-04-23T00:11:32.534Z,73.03
2019-04-23T00:12:47.848Z,73.98
2019-04-23T00:13:39.325Z,73.79
2019-04-23T00:14:38.512Z,73.22
2019-04-23T00:15:30.428Z,73.32
2019-04-23T00:16:39.458Z,72.74
2019-04-23T00:17:40.234Z,73.79
2019-04-23T00:18:42.652Z,74.37
2019-04-23T00:19:31.154Z,74.32
2019-04-23T00:20:34.875Z,74.42
2019-04-23T00:21:33.367Z,74.71
2019-04-23T00:23:49.807Z,75.28
2019-04-23T00:24:56.790Z,74.99
2019-04-23T00:26:50.459Z,75.28
2019-04-23T00:27:38.869Z,74.65
2019-04-23T00:28:35.906Z,73.79
2019-04-23T00:29:37.058Z,74.17
2019-04-23T00:30:43.220Z,74.17
2019-04-23T00:31:41.204Z,73.69
2019-04-23T00:32:35.055Z,74.65
2019-04-23T00:33:34.604Z,75.18
2019-04-23T00:34:42.658Z,75.85
2019-04-23T00:35:38.660Z,75.95
2019-04-23T00:37:37.392Z,74.74
2019-04-23T00:38:38.405Z,74.17
2019-04-23T00:39:41.002Z,75.89
2019-04-23T00:40:40.385Z,76.71
2019-04-23T00:41:36.624Z,76.23
2019-04-23T00:43:00.655Z,76.52
2019-04-23T00:43:34.252Z,76.33
2019-04-23T00:44:40.067Z,75.57
2019-04-23T00:45:40.721Z,75.66
2019-04-23T00:46:34.955Z,76.52
2019-04-23T00:47:51.388Z,77.00
2019-04-23T00:50:04.331Z,78.10
2019-04-23T00:50:44.980Z,77.47
2019-04-23T00:51:38.243Z,76.62
2019-04-23T00:52:50.691Z,77.00
2019-04-23T00:53:34.226Z,77.57
2019-04-23T00:54:46.840Z,78.14
2019-04-23T00:55:35.598Z,78.67
2019-04-23T00:56:57.028Z,78.86
2019-04-23T00:59:41.141Z,79.25
2019-04-23T01:01:47.752Z,79.72
2019-04-23T01:02:37.290Z,78.30
2019-04-23T01:03:37.454Z,77.57
2019-04-23T01:04:41.798Z,76.14
2019-04-23T01:05:37.718Z,76.81
2019-04-23T01:06:39.349Z,77.00
2019-04-23T01:07:40.337Z,77.28
2019-04-23T01:08:36.871Z,77.19
2019-04-23T01:09:42.263Z,77.34
2019-04-23T01:10:34.900Z,77.62
2019-04-23T01:11:34.211Z,78.86
2019-04-23T01:14:38.581Z,79.25
2019-04-23T01:15:39.111Z,79.53
2019-04-23T01:16:38.114Z,78.77
2019-04-23T01:17:39.946Z,79.44
2019-04-23T01:18:49.093Z,80.11
2019-04-23T01:19:37.486Z,80.39
2019-04-23T01:20:36.571Z,80.01
2019-04-23T01:21:18.029Z,80.39
2019-04-23T01:22:16.927Z,81.54
2019-04-23T01:23:20.652Z,81.63
2019-04-23T01:24:20.131Z,81.63
2019-04-23T01:25:24.773Z,81.35
2019-04-23T01:26:39.079Z,79.25
2019-04-23T01:27:57.232Z,78.77
2019-04-23T01:28:50.278Z,79.35
2019-04-23T01:29:42.510Z,79.63
2019-04-23T01:30:40.507Z,78.49
2019-04-23T01:31:43.091Z,78.20
2019-04-23T01:32:44.048Z,78.58
2019-04-23T01:33:44.696Z,78.20
2019-04-23T01:34:51.958Z,77.19
2019-04-23T01:35:42.494Z,75.85
2019-04-23T01:36:37.231Z,74.32
2019-04-23T01:37:41.088Z,74.52
2019-04-23T01:38:45.541Z,74.65
2019-04-23T01:39:43.892Z,74.27
2019-04-23T01:40:40.611Z,74.65
2019-04-23T01:41:47.823Z,74.99
2019-04-23T01:43:44.351Z,74.71
2019-04-23T01:45:35.916Z,74.55
2019-04-23T01:47:45.373Z,73.85
2019-04-23T01:48:48.190Z,74.32
2019-04-23T01:49:56.532Z,73.60
2019-04-23T01:50:48.375Z,73.32
2019-04-23T01:51:46.801Z,72.83
2019-04-23T01:52:52.165Z,72.93
2019-04-23T01:53:45.489Z,73.22
2019-04-23T01:54:45.549Z,74.52
2019-04-23T01:55:46.999Z,74.52
2019-04-23T01:56:38.584Z,74.55
2019-04-23T01:58:51.874Z,76.33
2019-04-23T01:59:49.772Z,76.14
2019-04-23T02:00:49.423Z,75.47
2019-04-23T02:01:51.865Z,75.66
2019-04-23T02:02:49.600Z,76.23
2019-04-23T02:03:52.247Z,75.85
2019-04-23T02:04:46.117Z,74.71
2019-04-23T02:06:45.460Z,74.52
2019-04-23T02:07:53.711Z,74.90
2019-04-23T02:08:48.519Z,75.09
2019-04-23T02:09:53.188Z,75.28
2019-04-23T02:10:51.253Z,74.80
2019-04-23T02:11:43.829Z,74.90
2019-04-23T02:12:47.719Z,74.52
2019-04-23T02:13:48.987Z,74.42
2019-04-23T02:14:51.767Z,75.85
2019-04-23T02:16:44.107Z,75.95
2019-04-23T02:17:52.114Z,75.09
2019-04-23T02:18:49.318Z,74.65
2019-04-23T02:20:48.078Z,74.32
2019-04-23T02:21:54.821Z,73.18
2019-04-23T02:23:44.023Z,72.74
2019-04-23T02:24:47.696Z,72.26
2019-04-23T02:26:43.453Z,72.64
2019-04-23T02:27:52.248Z,73.12
2019-04-23T02:30:20.701Z,73.08
2019-04-23T02:31:58.193Z,74.32
2019-04-23T02:32:59.463Z,73.94
2019-04-23T02:35:02.341Z,73.75
2019-04-23T02:38:00.323Z,73.47
2019-04-23T02:40:01.021Z,74.13
2019-04-23T02:43:59.292Z,74.52
2019-04-23T02:44:56.346Z,74.52
2019-04-23T02:46:59.330Z,74.80
2019-04-23T02:48:01.511Z,74.52
2019-04-23T02:48:58.272Z,74.71
2019-04-23T02:50:33.632Z,76.67
2019-04-23T02:52:57.793Z,78.01
2019-04-23T02:56:51.478Z,76.20
2019-04-23T02:58:01.868Z,75.62
2019-04-23T03:02:12.009Z,79.68
2019-04-23T03:04:02.360Z,78.86
2019-04-23T03:05:57.264Z,78.49
2019-04-23T03:07:16.032Z,78.39
2019-04-23T03:07:54.237Z,77.15
2019-04-23T03:12:00.698Z,77.06
2019-04-23T03:13:19.800Z,77.34
2019-04-23T03:15:05.101Z,78.54
2019-04-23T03:17:03.053Z,79.11
2019-04-23T03:18:12.203Z,78.77
2019-04-23T03:19:58.578Z,78.64
2019-04-23T03:21:11.636Z,80.44
2019-04-23T03:26:00.191Z,82.92
2019-04-23T03:28:11.714Z,83.31
2019-04-23T03:29:04.297Z,83.84
2019-04-23T03:32:30.841Z,84.88
2019-04-23T03:37:55.774Z,82.35
2019-04-23T03:41:09.125Z,80.26
2019-04-23T03:42:24.415Z,79.49
2019-04-23T03:43:47.086Z,78.92
2019-04-23T03:46:12.141Z,82.21
2019-04-23T03:46:51.415Z,83.45
2019-04-23T03:48:00.804Z,84.03
2019-04-23T03:48:51.204Z,84.31
2019-04-23T03:50:58.206Z,83.84
2019-04-23T03:52:01.223Z,84.03
2019-04-23T03:52:57.639Z,84.12
2019-04-23T03:54:05.840Z,84.69
2019-04-23T03:54:49.046Z,85.17
2019-04-23T03:56:05.600Z,85.93
2019-04-23T03:57:52.602Z,86.03
2019-04-23T03:58:58.188Z,86.79
2019-04-23T04:00:04.021Z,86.88
2019-04-23T04:01:01.401Z,87.17
2019-04-23T04:04:49.858Z,88.56
2019-04-23T04:09:08.517Z,89.22
2019-04-23T04:09:53.875Z,89.79
2019-04-23T04:12:00.982Z,89.89
2019-04-23T04:12:56.899Z,90.08
2019-04-23T04:16:07.464Z,90.08
2019-04-23T04:16:59.862Z,89.89
2019-04-23T04:18:11.676Z,90.84
2019-04-23T04:21:08.750Z,91.31
2019-04-23T04:22:15.104Z,91.22
2019-04-23T04:23:07.887Z,91.99
2019-04-23T04:25:03.256Z,92.08
2019-04-23T04:26:00.288Z,91.60
2019-04-23T04:29:01.244Z,91.99
2019-04-23T04:30:01.646Z,91.70
2019-04-23T04:30:53.746Z,90.84
2019-04-23T04:36:10.297Z,91.51
2019-04-23T04:37:27.650Z,91.41
2019-04-23T04:38:05.725Z,91.60
2019-04-23T04:40:23.259Z,91.22
2019-04-23T04:41:04.286Z,90.94
2019-04-23T04:41:58.827Z,92.08
2019-04-23T04:46:59.181Z,89.98
2019-04-23T04:47:53.986Z,88.60
2019-04-23T04:51:07.983Z,88.75
2019-04-23T04:55:03.279Z,89.70
2019-04-23T04:56:14.281Z,89.41
2019-04-23T04:57:04.987Z,89.41
2019-04-23T04:57:58.148Z,89.75
2019-04-23T05:00:45.653Z,90.75
2019-04-23T05:02:09.669Z,89.70
2019-04-23T05:04:02.421Z,90.27
2019-04-23T05:07:22.880Z,91.60
2019-04-23T05:09:00.753Z,91.41
2019-04-23T05:10:08.797Z,91.31
2019-04-23T05:11:10.862Z,91.22
2019-04-23T05:13:21.370Z,91.89
2019-04-23T05:14:01.352Z,92.46
2019-04-23T05:15:02.680Z,92.55
2019-04-23T05:16:02.916Z,91.89
2019-04-23T05:17:19.829Z,92.46
2019-04-23T05:18:08.393Z,92.46
2019-04-23T05:19:20.071Z,92.27
2019-04-23T05:19:58.952Z,92.65
2019-04-23T05:21:08.107Z,92.27
2019-04-23T05:23:09.153Z,92.65
2019-04-23T05:24:06.685Z,92.94
2019-04-23T05:24:52.812Z,93.03
2019-04-23T05:26:02.801Z,92.94
2019-04-23T05:26:57.957Z,92.65
2019-04-23T05:28:07.697Z,92.27
2019-04-23T05:29:01.725Z,92.55
2019-04-23T05:30:02.213Z,92.94
2019-04-23T05:31:02.311Z,92.27
2019-04-23T05:31:53.530Z,92.08
2019-04-23T05:33:08.827Z,92.65
2019-04-23T05:34:02.965Z,92.74
2019-04-23T05:34:56.130Z,93.08
2019-04-23T05:36:12.786Z,93.13
2019-04-23T05:37:00.171Z,93.32
2019-04-23T05:38:08.856Z,92.74
2019-04-23T05:40:00.438Z,92.74
2019-04-23T05:41:03.714Z,92.32
2019-04-23T05:42:13.997Z,92.27
2019-04-23T05:42:58.726Z,92.32
2019-04-23T05:44:05.215Z,92.32
2019-04-23T05:45:00.827Z,92.13
2019-04-23T05:45:56.876Z,92.13
2019-04-23T05:47:06.312Z,92.69
2019-04-23T05:48:09.704Z,92.89
2019-04-23T05:49:04.556Z,93.27
2019-04-23T05:50:00.430Z,92.79
2019-04-23T05:51:09.642Z,92.79
2019-04-23T05:52:59.757Z,91.55
2019-04-23T05:53:58.397Z,91.27
2019-04-23T05:55:02.678Z,90.31
2019-04-23T05:56:01.973Z,90.60
2019-04-23T05:56:55.076Z,90.12
2019-04-23T05:58:06.435Z,90.12
2019-04-23T05:59:11.562Z,90.26
2019-04-23T06:00:04.226Z,90.55
2019-04-23T06:01:11.409Z,90.26
2019-04-23T06:01:58.627Z,89.31
2019-04-23T06:03:06.345Z,88.84
2019-04-23T06:04:57.342Z,86.21
2019-04-23T06:06:02.969Z,84.20
2019-04-23T06:08:03.443Z,83.25
2019-04-23T06:08:58.628Z,82.34
2019-04-23T06:09:59.455Z,81.58
2019-04-23T06:11:02.325Z,81.29
2019-04-23T06:12:59.681Z,81.38
2019-04-23T06:14:05.175Z,81.01
2019-04-23T06:15:01.652Z,81.48
2019-04-23T06:15:57.705Z,81.20
2019-04-23T06:17:03.179Z,81.01
2019-04-23T06:20:06.689Z,80.43
2019-04-23T06:21:15.646Z,78.81
2019-04-23T06:22:07.476Z,78.56
2019-04-23T06:23:06.388Z,78.56
2019-04-23T06:24:13.114Z,78.37
2019-04-23T06:25:03.357Z,78.47
2019-04-23T06:26:19.773Z,78.47
2019-04-23T06:28:05.094Z,77.32
2019-04-23T06:29:05.017Z,77.42
2019-04-23T06:30:23.896Z,77.03
2019-04-23T06:31:04.996Z,77.23
2019-04-23T06:32:14.927Z,76.84
2019-04-23T06:32:59.644Z,76.37
2019-04-23T06:34:04.196Z,76.94
2019-04-23T06:35:01.494Z,77.03
2019-04-23T06:36:05.497Z,76.46
2019-04-23T06:37:06.870Z,76.37
2019-04-23T06:38:26.137Z,76.37
2019-04-23T06:40:00.387Z,75.45
2019-04-23T06:41:00.799Z,75.07
2019-04-23T06:42:00.454Z,74.98
2019-04-23T06:43:05.361Z,74.59
2019-04-23T06:44:05.823Z,74.88
2019-04-23T06:45:02.954Z,74.30
2019-04-23T06:45:59.080Z,73.48
2019-04-23T06:47:03.711Z,73.44
2019-04-23T06:48:09.179Z,73.29
2019-04-23T06:49:00.849Z,72.81
2019-04-23T06:50:00.131Z,72.91
2019-04-23T06:51:04.254Z,73.00
2019-04-23T06:52:08.632Z,72.43
2019-04-23T06:52:57.211Z,72.53
2019-04-23T06:55:01.155Z,71.38
2019-04-23T06:56:03.867Z,71.76
2019-04-23T06:57:14.604Z,72.05
2019-04-23T06:58:04.490Z,71.86
2019-04-23T06:59:06.368Z,72.53
2019-04-23T07:00:02.398Z,72.81
2019-04-23T07:01:02.079Z,72.33
2019-04-23T07:02:06.658Z,72.53
2019-04-23T07:03:10.828Z,71.95
2019-04-23T07:04:05.467Z,71.76
2019-04-23T07:07:24.141Z,71.67
2019-04-23T07:08:02.788Z,71.95
2019-04-23T07:09:10.724Z,72.14
2019-04-23T07:09:59.377Z,72.33
2019-04-23T07:11:07.890Z,71.86
2019-04-23T07:11:55.535Z,72.08
2019-04-23T07:13:08.889Z,71.32
2019-04-23T07:15:04.472Z,71.70
2019-04-23T07:16:03.189Z,71.22
2019-04-23T07:17:04.189Z,71.86
2019-04-23T07:18:05.806Z,71.89
2019-04-23T07:20:00.242Z,70.75
2019-04-23T07:21:09.453Z,70.94
2019-04-23T07:22:16.400Z,71.13
2019-04-23T07:23:10.195Z,70.94
2019-04-23T07:24:05.211Z,70.56
2019-04-23T07:26:08.075Z,70.36
2019-04-23T07:27:03.310Z,70.17
2019-04-23T07:28:06.890Z,70.17
2019-04-23T07:29:08.971Z,69.98
2019-04-23T07:30:08.684Z,69.98
2019-04-23T07:31:07.345Z,70.27
2019-04-23T07:33:04.524Z,70.36
2019-04-23T07:34:20.428Z,70.56
2019-04-23T07:35:07.232Z,71.22
2019-04-23T07:36:08.580Z,70.94
2019-04-23T07:37:06.950Z,70.75
2019-04-23T07:38:16.363Z,71.32
2019-04-23T07:39:11.638Z,70.75
2019-04-23T07:41:15.327Z,70.94
2019-04-23T07:42:08.108Z,71.13
2019-04-23T07:44:16.669Z,71.03
2019-04-23T07:46:10.547Z,71.36
2019-04-23T07:47:16.193Z,71.16
2019-04-23T07:48:10.854Z,71.16
2019-04-23T07:49:04.618Z,70.78
2019-04-23T07:50:19.092Z,70.30
2019-04-23T07:51:03.339Z,70.40
2019-04-23T07:54:08.064Z,69.64
2019-04-23T07:55:16.326Z,69.25
2019-04-23T07:56:07.502Z,70.21
2019-04-23T07:57:13.488Z,70.21
2019-04-23T07:58:14.294Z,70.50
2019-04-23T07:59:16.049Z,70.68
2019-04-23T08:00:29.707Z,70.81
2019-04-23T08:01:11.264Z,70.34
2019-04-23T08:02:15.915Z,70.05
2019-04-23T08:03:13.560Z,70.01
2019-04-23T08:04:30.188Z,70.81
2019-04-23T08:05:21.595Z,70.43
2019-04-23T08:06:04.230Z,70.15
2019-04-23T08:07:12.834Z,70.78
2019-04-23T08:08:07.286Z,70.72
2019-04-23T08:09:08.549Z,70.91
2019-04-23T08:10:10.394Z,70.53
2019-04-23T08:11:30.471Z,70.34
2019-04-23T08:12:13.690Z,70.43
2019-04-23T08:13:10.336Z,70.24
2019-04-23T08:14:05.172Z,70.53
2019-04-23T08:15:13.082Z,71.01
2019-04-23T08:16:19.152Z,70.05
2019-04-23T08:17:07.395Z,70.24
2019-04-23T08:18:08.893Z,70.15
2019-04-23T08:19:24.555Z,70.24
2019-04-23T08:20:07.860Z,70.28
2019-04-23T08:21:10.448Z,69.67
2019-04-23T08:22:09.174Z,70.15
2019-04-23T08:23:12.532Z,69.76
2019-04-23T08:24:17.011Z,69.57
2019-04-23T08:25:27.249Z,69.42
2019-04-23T08:26:13.598Z,69.89
2019-04-23T08:27:16.629Z,70.09
2019-04-23T08:28:13.551Z,69.99
2019-04-23T08:29:12.280Z,69.80
2019-04-23T08:30:04.532Z,69.42
2019-04-23T08:34:18.642Z,69.23
2019-04-23T08:36:12.239Z,69.80
2019-04-23T08:37:08.902Z,69.45
2019-04-23T08:39:11.539Z,69.70
2019-04-23T08:40:20.176Z,69.03
2019-04-23T08:41:20.644Z,69.07
2019-04-23T08:42:27.055Z,69.03
2019-04-23T08:44:15.582Z,69.51
2019-04-23T08:45:18.709Z,68.94
2019-04-23T08:46:13.990Z,69.60
2019-04-23T08:47:10.099Z,69.23
2019-04-23T08:49:13.977Z,69.80
2019-04-23T08:50:06.812Z,69.64
2019-04-23T08:51:22.325Z,69.26
2019-04-23T08:52:11.791Z,68.97
2019-04-23T08:53:26.369Z,68.97
2019-04-23T08:54:13.300Z,68.49
2019-04-23T08:55:08.675Z,68.30
2019-04-23T08:56:10.639Z,68.01
2019-04-23T08:57:22.706Z,68.01
2019-04-23T08:58:14.101Z,68.55
2019-04-23T08:59:22.896Z,69.03
2019-04-23T09:00:07.827Z,69.45
2019-04-23T09:01:10.830Z,68.97
2019-04-23T09:02:25.564Z,68.59
2019-04-23T09:04:10.614Z,68.59
2019-04-23T09:05:20.802Z,68.40
2019-04-23T09:06:25.844Z,67.82
2019-04-23T09:07:16.719Z,68.01
2019-04-23T09:09:13.233Z,68.78
2019-04-23T09:10:15.345Z,67.47
2019-04-23T09:12:18.866Z,68.40
2019-04-23T09:13:35.291Z,68.52
2019-04-23T09:14:05.210Z,68.05
2019-04-23T09:15:16.810Z,67.50
2019-04-23T09:16:09.011Z,66.74
2019-04-23T09:17:17.201Z,66.64
2019-04-23T09:19:16.036Z,66.35
2019-04-23T09:22:25.141Z,65.52
2019-04-23T09:23:13.306Z,65.91
2019-04-23T09:24:09.591Z,64.95
2019-04-23T09:25:20.300Z,65.62
2019-04-23T09:26:22.742Z,65.81
2019-04-23T09:27:18.143Z,65.43
2019-04-23T09:28:24.017Z,65.62
2019-04-23T09:29:14.795Z,65.72
2019-04-23T09:30:12.600Z,65.97
2019-04-23T09:32:22.422Z,66.19
2019-04-23T09:33:14.063Z,65.72
2019-04-23T09:34:11.439Z,65.17
2019-04-23T09:35:20.229Z,64.98
2019-04-23T09:36:13.579Z,63.73
2019-04-23T09:37:18.843Z,64.50
2019-04-23T09:38:11.705Z,63.86
2019-04-23T09:39:12.897Z,63.09
2019-04-23T09:40:27.597Z,62.90
2019-04-23T09:42:16.156Z,62.81
2019-04-23T09:43:14.145Z,62.90
2019-04-23T09:44:39.118Z,63.19
2019-04-23T09:45:12.996Z,62.90
2019-04-23T09:46:17.435Z,63.02
2019-04-23T09:47:16.024Z,62.45
2019-04-23T09:48:04.937Z,62.07
2019-04-23T09:49:36.207Z,62.35
2019-04-23T09:50:15.675Z,62.61
2019-04-23T09:51:17.903Z,62.71
2019-04-23T09:52:14.603Z,62.93
2019-04-23T09:55:24.486Z,64.53
2019-04-23T09:56:14.847Z,63.51
2019-04-23T09:57:14.060Z,63.09
2019-04-23T09:58:11.868Z,63.19
2019-04-23T09:59:32.341Z,63.48
2019-04-23T10:00:23.074Z,63.32
2019-04-23T10:01:20.912Z,63.48
2019-04-23T10:02:06.620Z,63.41
2019-04-23T10:03:02.402Z,63.02
2019-04-23T10:04:00.048Z,61.71
2019-04-23T10:04:59.567Z,60.75
2019-04-23T10:05:57.152Z,61.04
2019-04-23T10:07:03.249Z,62.07
2019-04-23T10:07:58.631Z,62.16
2019-04-23T10:08:51.921Z,62.74
2019-04-23T10:09:48.367Z,62.19
2019-04-23T10:10:47.286Z,62.10
2019-04-23T10:11:47.330Z,61.43
2019-04-23T10:12:48.213Z,62.10
2019-04-23T10:13:48.382Z,61.91
2019-04-23T10:14:59.267Z,60.75
2019-04-23T10:15:49.666Z,60.46
2019-04-23T10:16:49.242Z,59.72
2019-04-23T10:17:47.692Z,59.63
2019-04-23T10:18:49.123Z,59.99
2019-04-23T10:19:48.669Z,60.37
2019-04-23T10:20:48.737Z,60.75
2019-04-23T10:21:49.190Z,60.85
2019-04-23T10:22:48.321Z,60.75
2019-04-23T10:23:49.564Z,60.21
2019-04-23T10:24:48.792Z,60.21
2019-04-23T10:25:48.189Z,60.04
2019-04-23T10:26:48.253Z,59.94
2019-04-23T10:27:55.075Z,60.01
2019-04-23T10:28:49.808Z,60.30
2019-04-23T10:29:49.849Z,60.01
2019-04-23T10:30:49.016Z,60.11
2019-04-23T10:31:49.460Z,59.44
2019-04-23T10:32:49.492Z,59.85
2019-04-23T10:33:50.284Z,59.75
2019-04-23T10:34:57.832Z,59.08
2019-04-23T10:35:55.109Z,58.60
2019-04-23T10:36:49.525Z,58.72
2019-04-23T10:37:56.855Z,58.53
2019-04-23T10:38:55.885Z,58.37
2019-04-23T10:39:54.855Z,57.50
2019-04-23T10:40:50.158Z,56.92
2019-04-23T10:41:50.969Z,56.63
2019-04-23T10:42:51.491Z,56.92
2019-04-23T10:43:52.368Z,57.02
2019-04-23T10:44:52.117Z,56.63
2019-04-23T10:46:07.975Z,56.27
2019-04-23T10:47:15.174Z,56.35
2019-04-23T10:49:32.135Z,56.09
2019-04-23T10:50:17.274Z,56.18
2019-04-23T10:51:25.054Z,55.82
2019-04-23T10:54:26.294Z,54.28
2019-04-23T10:55:11.861Z,54.11
2019-04-23T10:56:20.733Z,53.92
2019-04-23T10:57:33.911Z,54.11
2019-04-23T10:59:19.850Z,53.05
2019-04-23T11:00:22.314Z,53.25
2019-04-23T11:01:20.856Z,54.18
2019-04-23T11:02:32.876Z,53.70
2019-04-23T11:03:38.167Z,54.13
2019-04-23T11:04:38.505Z,55.67
2019-04-23T11:05:35.530Z,55.89
2019-04-23T11:06:28.771Z,54.96
2019-04-23T11:07:28.558Z,53.99
2019-04-23T11:08:18.291Z,53.83
2019-04-23T11:09:36.594Z,52.89
2019-04-23T11:10:16.088Z,52.59
2019-04-23T11:11:24.041Z,51.87
2019-04-23T11:12:32.492Z,51.29
2019-04-23T11:13:25.635Z,50.81
2019-04-23T11:14:25.586Z,50.71
2019-04-23T11:15:32.465Z,49.85
2019-04-23T11:17:31.967Z,50.84
2019-04-23T11:18:34.103Z,48.86
2019-04-23T11:19:27.646Z,47.43
2019-04-23T11:20:35.371Z,46.87
2019-04-23T11:22:40.275Z,46.94
2019-04-23T11:23:17.030Z,47.50
2019-04-23T11:24:30.490Z,47.21
2019-04-23T11:25:33.106Z,47.67
2019-04-23T11:26:26.424Z,47.60
2019-04-23T11:27:25.973Z,47.96
2019-04-23T11:28:25.792Z,48.30
2019-04-23T11:29:27.972Z,49.82
2019-04-23T11:31:31.561Z,49.49
2019-04-23T11:32:42.855Z,49.17
2019-04-23T11:33:19.894Z,49.19
2019-04-23T11:34:46.006Z,48.79
2019-04-23T11:37:37.967Z,50.96
2019-04-23T11:39:21.697Z,51.03
2019-04-23T11:40:31.317Z,51.53
2019-04-23T11:41:31.007Z,50.89
2019-04-23T11:43:34.237Z,50.33
2019-04-23T11:44:26.957Z,49.85
2019-04-23T11:45:32.510Z,50.13
2019-04-23T11:46:39.901Z,49.39
2019-04-23T11:48:00.451Z,49.37
2019-04-23T11:49:51.049Z,48.83
2019-04-23T11:50:28.117Z,49.19
2019-04-23T11:52:30.090Z,49.75
2019-04-23T11:53:26.063Z,49.39
2019-04-23T11:54:27.766Z,49.19
2019-04-23T11:55:35.789Z,48.93
2019-04-23T11:56:49.211Z,48.44
2019-04-23T11:59:31.651Z,47.99
2019-04-23T12:00:26.211Z,48.54
2019-04-23T12:02:23.449Z,48.54
2019-04-23T12:03:19.398Z,48.35
2019-04-23T12:05:26.587Z,48.25
2019-04-23T12:07:22.831Z,47.67
2019-04-23T12:08:36.512Z,49.02
2019-04-23T12:09:35.288Z,48.76
2019-04-23T12:10:29.069Z,48.18
2019-04-23T12:11:48.976Z,47.99
2019-04-23T12:12:25.081Z,47.99
2019-04-23T12:13:32.185Z,47.41
2019-04-23T12:14:37.177Z,46.75
2019-04-23T12:16:28.504Z,46.92
2019-04-23T12:20:28.919Z,50.21
2019-04-23T12:21:32.419Z,49.85
2019-04-23T12:24:53.617Z,50.71
2019-04-23T12:25:27.894Z,49.87
2019-04-23T12:26:40.777Z,49.41
2019-04-23T12:28:36.570Z,48.49
2019-04-23T12:29:33.905Z,47.91
2019-04-23T12:31:29.264Z,48.37
2019-04-23T12:33:39.126Z,47.62
2019-04-23T12:34:30.053Z,48.01
2019-04-23T12:35:25.691Z,47.45
2019-04-23T12:36:28.199Z,46.87
2019-04-23T12:37:33.388Z,47.60
2019-04-23T12:39:27.116Z,49.15
2019-04-23T12:41:29.859Z,47.62
2019-04-23T12:43:27.480Z,46.80
2019-04-23T12:44:30.654Z,45.58
2019-04-23T12:45:31.712Z,45.10
2019-04-23T12:46:29.670Z,44.73
2019-04-23T12:47:43.651Z,43.95
2019-04-23T12:48:33.731Z,44.00
2019-04-23T12:49:47.952Z,43.68
2019-04-23T12:51:34.997Z,46.53
2019-04-23T12:52:36.000Z,48.25
2019-04-23T12:53:30.626Z,49.29
2019-04-23T12:54:47.078Z,49.41
2019-04-23T12:55:41.910Z,49.32
2019-04-23T12:56:21.927Z,48.95
2019-04-23T12:57:29.666Z,48.37
2019-04-23T12:58:26.721Z,48.47
2019-04-23T12:59:28.653Z,48.49
2019-04-23T13:00:27.135Z,47.62
2019-04-23T13:01:37.791Z,47.24
2019-04-23T13:02:41.181Z,47.04
2019-04-23T13:04:24.872Z,46.77
2019-04-23T13:06:20.424Z,45.68
2019-04-23T13:07:36.729Z,44.54
2019-04-23T13:08:33.242Z,43.68
2019-04-23T13:09:42.919Z,43.41
2019-04-23T13:10:30.053Z,42.95
2019-04-23T13:11:32.994Z,41.71
2019-04-23T13:12:38.185Z,41.61
2019-04-23T13:13:27.986Z,41.59
2019-04-23T13:14:34.757Z,41.51
2019-04-23T13:17:42.581Z,42.91
2019-04-23T13:19:40.156Z,42.18
2019-04-23T13:20:28.041Z,41.80
2019-04-23T13:21:52.182Z,42.27
2019-04-23T13:22:37.431Z,42.39
2019-04-23T13:24:26.479Z,42.15
2019-04-23T13:25:34.813Z,42.91
2019-04-23T13:26:27.978Z,42.81
2019-04-23T13:27:38.638Z,42.23
2019-04-23T13:28:28.127Z,43.57
2019-04-23T13:29:41.017Z,43.57
2019-04-23T13:30:44.730Z,44.61
2019-04-23T13:31:20.449Z,43.86
2019-04-23T13:32:31.371Z,43.84
2019-04-23T13:33:35.494Z,43.84
2019-04-23T13:34:37.613Z,43.30
2019-04-23T13:36:32.470Z,43.12
2019-04-23T13:37:40.456Z,42.25
2019-04-23T13:38:36.312Z,42.40
2019-04-23T13:39:34.813Z,43.57
2019-04-23T13:40:47.522Z,43.37
2019-04-23T13:41:30.189Z,43.35
2019-04-23T13:43:36.256Z,44.68
2019-04-23T13:44:34.370Z,44.93
2019-04-23T13:46:32.936Z,45.34
2019-04-23T13:47:41.431Z,45.25
2019-04-23T13:48:19.930Z,45.37
2019-04-23T13:49:37.754Z,45.37
2019-04-23T13:55:00.027Z,43.68
2019-04-23T13:55:26.681Z,43.74
2019-04-23T13:56:39.261Z,44.68
2019-04-23T13:58:02.313Z,44.40
2019-04-23T13:58:28.361Z,44.09
2019-04-23T13:59:42.906Z,44.74
2019-04-23T14:01:35.445Z,46.75
2019-04-23T14:02:40.385Z,46.56
2019-04-23T14:03:35.765Z,46.84
2019-04-23T14:04:41.690Z,45.78
2019-04-23T14:05:33.104Z,46.36
2019-04-23T14:07:44.135Z,46.56
2019-04-23T14:10:44.860Z,45.34
2019-04-23T14:12:43.717Z,44.18
2019-04-23T14:14:42.129Z,46.75
2019-04-23T14:15:40.543Z,45.61
2019-04-23T14:16:39.702Z,44.30
2019-04-23T14:18:53.892Z,44.57
2019-04-23T14:19:28.092Z,44.40
2019-04-23T14:21:35.281Z,44.49
2019-04-23T14:22:51.242Z,44.18
2019-04-23T14:23:59.447Z,44.20
2019-04-23T14:24:38.231Z,43.82
2019-04-23T14:25:40.093Z,43.74
2019-04-23T14:26:35.186Z,43.91
2019-04-23T14:28:37.353Z,44.23
2019-04-23T14:29:41.418Z,44.23
2019-04-23T14:30:38.537Z,44.23
2019-04-23T14:31:28.524Z,43.86
2019-04-23T14:33:46.049Z,42.71
2019-04-23T14:34:40.845Z,41.69
2019-04-23T14:35:32.529Z,41.98
2019-04-23T14:36:39.694Z,41.32
2019-04-23T14:37:38.193Z,42.05
2019-04-23T14:39:31.739Z,44.32
2019-04-23T14:40:43.167Z,44.88
2019-04-23T14:41:26.401Z,45.10
2019-04-23T14:42:49.782Z,44.61
2019-04-23T14:44:36.548Z,44.42
2019-04-23T14:46:41.411Z,44.13
2019-04-23T14:47:38.022Z,45.54
2019-04-23T14:48:30.717Z,46.14
2019-04-23T14:52:39.061Z,46.82
2019-04-23T14:53:30.352Z,46.89
2019-04-23T14:54:52.499Z,46.72
2019-04-23T14:56:35.049Z,45.78
2019-04-23T14:57:45.173Z,45.37
2019-04-23T14:58:57.561Z,45.95
2019-04-23T14:59:30.727Z,46.24
2019-04-23T15:00:46.469Z,46.72
2019-04-23T15:01:35.512Z,46.80
2019-04-23T15:02:44.928Z,47.19
2019-04-23T15:03:40.346Z,47.57
2019-04-23T15:04:39.362Z,47.64
2019-04-23T15:05:45.974Z,47.45
2019-04-23T15:06:46.832Z,47.57
2019-04-23T15:07:36.972Z,47.28
2019-04-23T15:08:50.082Z,47.16
2019-04-23T15:09:52.789Z,47.26
2019-04-23T15:10:49.195Z,47.16
2019-04-23T15:11:35.412Z,46.89
2019-04-23T15:12:40.359Z,46.70
2019-04-23T15:13:38.581Z,46.31
2019-04-23T15:14:46.349Z,46.48
2019-04-23T15:15:31.868Z,46.72
2019-04-23T15:16:39.787Z,46.24
2019-04-23T15:17:34.679Z,46.87
2019-04-23T15:18:45.196Z,46.77
2019-04-23T15:20:39.270Z,47.52
2019-04-23T15:22:42.411Z,47.04
2019-04-23T15:24:38.447Z,48.66
2019-04-23T15:25:53.152Z,48.69
2019-04-23T15:26:58.870Z,47.26
2019-04-23T15:27:45.675Z,48.59
2019-04-23T15:28:14.208Z,48.49
2019-04-23T15:29:26.731Z,48.57
2019-04-23T15:30:38.759Z,49.24
2019-04-23T15:32:47.161Z,49.92
2019-04-23T15:33:44.955Z,49.73
2019-04-23T15:34:33.005Z,49.73
2019-04-23T15:35:53.357Z,49.82
2019-04-23T15:37:01.069Z,49.73
2019-04-23T15:38:43.452Z,50.74
2019-04-23T15:40:36.814Z,51.06
2019-04-23T15:42:00.829Z,51.06
2019-04-23T15:42:43.930Z,51.61
2019-04-23T15:43:46.798Z,52.02
2019-04-23T15:44:32.355Z,51.25
2019-04-23T15:45:42.373Z,51.03
2019-04-23T15:47:39.851Z,51.59
2019-04-23T15:48:46.440Z,51.78
2019-04-23T15:49:37.691Z,52.26
2019-04-23T15:50:37.203Z,52.84
2019-04-23T15:51:48.022Z,52.58
2019-04-23T15:52:44.307Z,52.00
2019-04-23T15:53:34.837Z,52.31
2019-04-23T15:54:56.792Z,51.73
2019-04-23T15:55:44.172Z,51.93
2019-04-23T15:58:48.569Z,51.32
2019-04-23T15:59:44.144Z,51.81
2019-04-23T16:00:39.727Z,51.78
2019-04-23T16:02:10.489Z,51.10
2019-04-23T16:03:12.904Z,50.71
2019-04-23T16:04:13.133Z,50.91
2019-04-23T16:05:12.508Z,51.01
2019-04-23T16:06:13.485Z,50.89
2019-04-23T16:07:16.884Z,51.01
2019-04-23T16:08:45.838Z,50.79
2019-04-23T16:09:37.123Z,50.01
2019-04-23T16:10:45.870Z,50.31
2019-04-23T16:11:47.804Z,50.50
2019-04-23T16:12:50.715Z,49.85
2019-04-23T16:13:53.372Z,49.65
2019-04-23T16:14:42.436Z,49.65
2019-04-23T16:15:43.377Z,49.75
2019-04-23T16:16:46.298Z,49.85
2019-04-23T16:17:46.932Z,49.82
2019-04-23T16:18:44.709Z,50.01
2019-04-23T16:19:45.884Z,50.79
2019-04-23T16:20:46.991Z,50.59